Disclaimer

Please do not use the information listed here in-flight or in-navigation, as they are not provided to us by the airports but are provided by volunteers, so they might be outdated.

Search


Regions


Airport information page

No radio frequency information is available.

Airport informations:
Latitude: 40° 54' 57.12" N
Longitude: 008° 38' 45.31" W
Elevation: 56 feet - 17 meters
Operating hours: Remarks
Operating agency: Military
Timezone: UTC 0(+1DT) - Last Sunday in March to last Sunday in October
Fuel: JP-8, SemiKeroscene MIL Spec T-83133, without icing inhibitor

100/130 MIL Spec, low lead, aviation gasoline (BLUE)

Runway information:
18/36 - 8005 x 148 feet< - >2440 x 45 meters

Recent METARs:
LPOV 160800Z 25005KT 200V300 9999 SCT015 12/11 Q1020
LPOV 160800Z 25005KT 200V300 9999 SCT015 12/11 Q1020
LPOV 160900Z 29010KT 240V320 8000 -SHRA SCT015 BKN030 13/11 Q1021

Airport on the map: